Time;durP1;ratioP1;P1;durP2;ratioP2;P2;SDS_P1;SDS_P2;PMS_P1;PMS_P2;Temp;Humidity;BMP_temperature;BMP_pressure;BME280_temperature;BME280_humidity;BME280_pressure;Samples;Min_cycle;Max_cycle;Signal;HPM_P1;HPM_P2
2022/01/04 00:00:37;;;;;;;52.17;37.53;;;9.40;89.40;;;;;;4960170;28;20143;-79
2022/01/04 00:03:03;;;;;;;44.92;33.17;;;9.40;89.50;;;;;;4955817;29;20043;-80
2022/01/04 00:05:29;;;;;;;43.33;33.72;;;9.30;89.80;;;;;;4955333;29;20075;-79
2022/01/04 00:07:55;;;;;;;48.45;36.78;;;9.30;90.00;;;;;;4958374;28;20035;-79
2022/01/04 00:10:23;;;;;;;45.63;34.20;;;9.20;90.00;;;;;;4955204;28;20090;-78
2022/01/04 00:15:34;;;;;;;45.63;34.67;;;9.20;90.00;;;;;;4958839;28;20058;-79
2022/01/04 00:18:00;;;;;;;50.22;36.85;;;9.30;90.10;;;;;;4963227;28;20046;-79
2022/01/04 00:20:26;;;;;;;49.08;36.40;;;9.30;89.80;;;;;;4961574;28;20477;-79
2022/01/04 00:22:52;;;;;;;49.83;36.55;;;9.40;90.00;;;;;;4937623;29;20035;-79
2022/01/04 00:25:18;;;;;;;46.22;36.35;;;9.40;89.90;;;;;;4955689;28;20123;-79
2022/01/04 00:27:43;;;;;;;47.97;35.97;;;9.40;89.70;;;;;;4961325;28;20046;-80
2022/01/04 00:30:10;;;;;;;51.58;37.33;;;9.40;89.70;;;;;;4962229;28;20035;-80
2022/01/04 00:32:35;;;;;;;47.88;35.72;;;9.50;89.60;;;;;;4953923;28;20519;-80
2022/01/04 00:35:01;;;;;;;45.88;35.22;;;9.40;89.30;;;;;;4954677;29;20039;-80
2022/01/04 00:37:27;;;;;;;48.15;35.75;;;9.50;89.30;;;;;;4955023;29;20455;-80
2022/01/04 00:39:52;;;;;;;47.70;35.55;;;9.50;89.30;;;;;;4955689;29;20039;-80
2022/01/04 00:42:18;;;;;;;49.97;36.00;;;9.50;89.10;;;;;;4941274;28;20063;-81
2022/01/04 00:44:44;;;;;;;45.80;35.25;;;9.50;89.00;;;;;;4959546;28;20066;-80
2022/01/04 00:47:10;;;;;;;48.50;36.42;;;9.50;89.00;;;;;;4938258;28;20118;-79
2022/01/04 00:49:36;;;;;;;56.10;42.08;;;9.50;88.70;;;;;;4955436;29;20395;-79
2022/01/04 00:52:03;;;;;;;44.63;34.90;;;9.40;88.60;;;;;;4954595;28;20036;-79
2022/01/04 00:54:30;;;;;;;53.85;40.53;;;9.30;89.10;;;;;;4954941;29;20062;-79
2022/01/04 00:56:55;;;;;;;44.78;34.45;;;9.30;89.00;;;;;;4937128;29;20031;-80
2022/01/04 00:59:22;;;;;;;44.88;35.85;;;9.30;89.40;;;;;;4955316;29;20042;-79
2022/01/04 01:01:47;;;;;;;48.30;35.60;;;9.30;89.30;;;;;;4954807;29;20027;-79
2022/01/04 01:04:13;;;;;;;45.60;33.58;;;9.40;89.30;;;;;;4944947;29;20475;-79
2022/01/04 01:06:39;;;;;;;45.65;33.25;;;9.40;88.90;;;;;;4954643;29;20046;-79
2022/01/04 01:09:05;;;;;;;43.10;33.17;;;9.40;88.90;;;;;;4970960;28;20043;-80
2022/01/04 01:11:31;;;;;;;46.53;34.28;;;9.40;88.80;;;;;;4937517;29;20173;-80
2022/01/04 01:13:57;;;;;;;51.20;37.00;;;9.40;88.90;;;;;;4955862;28;20560;-79
2022/01/04 01:16:23;;;;;;;46.38;34.85;;;9.40;88.90;;;;;;4960931;28;20118;-79
2022/01/04 01:18:49;;;;;;;46.67;35.08;;;9.50;88.90;;;;;;4954801;29;20046;-79
2022/01/04 01:21:15;;;;;;;42.92;33.35;;;9.50;88.80;;;;;;4954444;29;20115;-79
2022/01/04 01:23:41;;;;;;;48.08;35.38;;;9.50;88.50;;;;;;4969113;28;20058;-79
2022/01/04 01:26:08;;;;;;;47.53;34.72;;;9.50;88.40;;;;;;4954618;28;20507;-80
2022/01/04 01:28:35;;;;;;;45.97;34.78;;;9.50;88.50;;;;;;4968061;28;20121;-80
2022/01/04 01:31:01;;;;;;;45.63;34.75;;;9.60;88.40;;;;;;4954659;29;20149;-79
2022/01/04 01:33:27;;;;;;;45.45;34.53;;;9.60;88.30;;;;;;4962458;28;20428;-79
2022/01/04 01:35:57;;;;;;;46.28;35.03;;;9.60;88.30;;;;;;4954107;29;20102;-79
2022/01/04 01:38:23;;;;;;;44.53;34.03;;;9.60;88.30;;;;;;4966835;28;20042;-80
2022/01/04 01:40:51;;;;;;;44.08;34.83;;;9.70;88.30;;;;;;4959220;28;20031;-80
2022/01/04 01:43:16;;;;;;;45.17;34.55;;;9.70;88.30;;;;;;4951772;28;20130;-80
2022/01/04 01:45:43;;;;;;;45.03;34.47;;;9.60;88.20;;;;;;4973935;28;20449;-80
2022/01/04 01:48:09;;;;;;;51.03;35.05;;;9.70;88.20;;;;;;4965544;28;20043;-80
2022/01/04 01:50:36;;;;;;;43.78;33.33;;;9.70;88.10;;;;;;4948784;29;20044;-80
2022/01/04 01:53:02;;;;;;;45.25;34.00;;;9.70;88.10;;;;;;4963874;28;20062;-80
2022/01/04 01:55:28;;;;;;;47.60;34.83;;;9.70;88.10;;;;;;4969214;28;20038;-80
2022/01/04 01:57:54;;;;;;;43.75;32.80;;;9.70;88.00;;;;;;4954645;29;20040;-80
2022/01/04 02:00:22;;;;;;;43.53;33.78;;;9.70;87.80;;;;;;4954550;29;20090;-80
2022/01/04 02:02:48;;;;;;;46.30;33.72;;;9.70;88.00;;;;;;4956675;28;20043;-80
2022/01/04 02:05:14;;;;;;;47.97;36.25;;;9.60;88.10;;;;;;4957925;29;20116;-80
2022/01/04 02:07:42;;;;;;;45.60;34.90;;;9.60;88.20;;;;;;4966834;28;20039;-80
2022/01/04 02:10:09;;;;;;;45.28;34.70;;;9.60;88.20;;;;;;4977966;28;20078;-80
2022/01/04 02:12:38;;;;;;;50.72;36.25;;;9.60;88.30;;;;;;4977794;28;20107;-80
2022/01/04 02:15:07;;;;;;;45.08;34.38;;;9.60;88.30;;;;;;4975786;28;20080;-80
2022/01/04 02:17:33;;;;;;;46.60;35.45;;;9.60;88.30;;;;;;4973312;28;20444;-80
2022/01/04 02:19:59;;;;;;;45.85;33.95;;;9.60;88.20;;;;;;4941392;29;20038;-80
2022/01/04 02:22:26;;;;;;;47.28;35.30;;;9.60;88.30;;;;;;4958403;29;20058;-80
2022/01/04 02:24:53;;;;;;;48.40;36.55;;;9.60;88.40;;;;;;4957614;28;20042;-80
2022/01/04 02:27:19;;;;;;;46.30;34.33;;;9.60;88.50;;;;;;4959380;28;20066;-80
2022/01/04 02:29:46;;;;;;;50.28;34.90;;;9.60;88.50;;;;;;4956609;29;20047;-80
2022/01/04 02:32:13;;;;;;;45.65;34.28;;;9.60;88.40;;;;;;4944784;28;20043;-80
2022/01/04 02:34:39;;;;;;;49.20;35.10;;;9.60;88.50;;;;;;4945181;29;20039;-80
2022/01/04 02:37:08;;;;;;;45.50;34.20;;;9.60;88.50;;;;;;4957599;28;20110;-80
2022/01/04 02:39:36;;;;;;;44.90;33.92;;;9.60;88.60;;;;;;4956550;28;20039;-79
2022/01/04 02:42:03;;;;;;;48.88;35.53;;;9.50;88.60;;;;;;4971845;28;20039;-79
2022/01/04 02:44:29;;;;;;;47.20;35.40;;;9.50;88.60;;;;;;4957421;28;20181;-79
2022/01/04 02:46:55;;;;;;;47.55;35.75;;;9.60;88.70;;;;;;4957152;28;20483;-80
2022/01/04 02:49:20;;;;;;;49.08;36.13;;;9.60;88.70;;;;;;4950049;28;20495;-79
2022/01/04 02:51:46;;;;;;;47.92;35.78;;;9.60;88.60;;;;;;4957332;28;20062;-79
2022/01/04 02:54:12;;;;;;;48.00;36.25;;;9.60;88.60;;;;;;4948246;29;20102;-78
2022/01/04 02:56:38;;;;;;;46.58;35.05;;;9.60;88.60;;;;;;4956261;28;20419;-78
2022/01/04 02:59:04;;;;;;;47.13;34.88;;;9.60;88.50;;;;;;4938486;29;20035;-79
2022/01/04 03:01:30;;;;;;;44.15;33.30;;;9.60;88.60;;;;;;4948641;29;20039;-79
2022/01/04 03:03:56;;;;;;;48.95;36.17;;;9.60;88.70;;;;;;4956270;29;20411;-79
2022/01/04 03:06:23;;;;;;;48.40;35.80;;;9.60;88.80;;;;;;4956207;28;20043;-81
2022/01/04 03:08:48;;;;;;;47.33;35.33;;;9.60;88.70;;;;;;4956352;28;20047;-81
2022/01/04 03:11:14;;;;;;;48.72;36.45;;;9.60;88.70;;;;;;4938578;29;20054;-81
2022/01/04 03:13:40;;;;;;;45.00;33.05;;;9.60;88.50;;;;;;4955470;28;20035;-80
2022/01/04 03:16:05;;;;;;;48.75;35.55;;;9.60;88.70;;;;;;4938596;29;20693;-80
2022/01/04 03:18:31;;;;;;;47.40;34.85;;;9.60;88.80;;;;;;4955881;29;20047;-80
2022/01/04 03:20:57;;;;;;;47.30;35.70;;;9.60;88.60;;;;;;4964118;28;20043;-80
2022/01/04 03:23:23;;;;;;;45.78;34.42;;;9.60;88.70;;;;;;4939982;29;20326;-80
2022/01/04 03:25:49;;;;;;;45.05;34.45;;;9.60;88.80;;;;;;4939433;29;20396;-81
2022/01/04 03:28:18;;;;;;;44.75;35.30;;;9.60;88.70;;;;;;4957579;29;20086;-81
2022/01/04 03:30:44;;;;;;;48.03;34.33;;;9.70;88.70;;;;;;4957408;28;20066;-82
2022/01/04 03:33:10;;;;;;;45.05;33.95;;;9.70;88.50;;;;;;4956968;29;20063;-80
2022/01/04 03:35:36;;;;;;;46.60;35.10;;;9.70;88.40;;;;;;4964418;28;20467;-80
2022/01/04 03:38:02;;;;;;;44.97;33.78;;;9.70;88.30;;;;;;4934474;29;20126;-80
2022/01/04 03:40:27;;;;;;;43.45;33.10;;;9.70;88.30;;;;;;4954565;29;20046;-80
2022/01/04 03:42:53;;;;;;;44.70;33.78;;;9.70;88.20;;;;;;4957122;28;20098;-79
2022/01/04 03:45:19;;;;;;;44.72;33.17;;;9.70;87.90;;;;;;4959324;28;20083;-80
2022/01/04 03:47:44;;;;;;;44.22;33.65;;;9.70;88.10;;;;;;4956649;29;20483;-80
2022/01/04 03:50:10;;;;;;;45.60;34.10;;;9.70;88.10;;;;;;4960732;28;21192;-81
2022/01/04 03:52:37;;;;;;;47.45;34.45;;;9.60;88.20;;;;;;4963853;28;20483;-80
2022/01/04 03:55:05;;;;;;;43.60;33.78;;;9.70;88.30;;;;;;4939337;29;20102;-80
2022/01/04 03:57:30;;;;;;;47.92;34.67;;;9.70;88.30;;;;;;4938576;29;20047;-80
2022/01/04 03:59:56;;;;;;;44.95;32.88;;;9.70;88.00;;;;;;4956017;28;20436;-80
2022/01/04 04:02:22;;;;;;;47.97;34.88;;;9.70;87.90;;;;;;4938914;29;20400;-79
2022/01/04 04:04:48;;;;;;;45.42;33.67;;;9.70;87.90;;;;;;4955605;28;20089;-79
2022/01/04 04:07:13;;;;;;;45.25;34.10;;;9.70;87.90;;;;;;4955875;29;20408;-80
2022/01/04 04:09:40;;;;;;;47.25;36.05;;;9.70;88.00;;;;;;4955518;29;20504;-79
2022/01/04 04:12:06;;;;;;;44.25;33.47;;;9.70;87.90;;;;;;4938416;29;20075;-80
2022/01/04 04:14:32;;;;;;;44.40;33.80;;;9.70;88.10;;;;;;4955409;28;20039;-79
2022/01/04 04:16:58;;;;;;;46.80;34.97;;;9.70;88.20;;;;;;4958265;28;20507;-79
2022/01/04 04:19:23;;;;;;;46.83;35.45;;;9.60;88.20;;;;;;4955483;29;20035;-79
2022/01/04 04:21:49;;;;;;;45.97;34.42;;;9.60;88.40;;;;;;4956077;29;20063;-80
2022/01/04 04:24:15;;;;;;;44.55;34.05;;;9.60;88.50;;;;;;4956013;29;20035;-79
2022/01/04 04:26:40;;;;;;;44.25;35.50;;;9.60;88.60;;;;;;4955124;28;20047;-80
2022/01/04 04:29:06;;;;;;;44.05;32.83;;;9.60;88.60;;;;;;4955253;29;20485;-80
2022/01/04 04:31:32;;;;;;;46.75;34.33;;;9.50;88.60;;;;;;4955615;29;20035;-80
2022/01/04 04:33:58;;;;;;;47.08;35.05;;;9.60;88.80;;;;;;4955632;29;20027;-80
2022/01/04 04:36:24;;;;;;;45.22;34.40;;;9.60;88.90;;;;;;4941933;29;20047;-80
2022/01/04 04:38:50;;;;;;;47.42;35.63;;;9.50;89.00;;;;;;4955745;28;20034;-80
2022/01/04 04:41:16;;;;;;;47.13;35.30;;;9.50;89.00;;;;;;4967689;28;20098;-81
2022/01/04 04:43:42;;;;;;;46.50;34.95;;;9.50;89.10;;;;;;4967309;28;20043;-80
2022/01/04 04:46:15;;;;;;;46.38;34.92;;;9.50;89.20;;;;;;5084032;28;20738;-81
2022/01/04 04:48:40;;;;;;;48.58;36.08;;;9.50;89.40;;;;;;5084459;28;20052;-81
2022/01/04 04:51:06;;;;;;;47.08;35.33;;;9.50;89.40;;;;;;5065239;28;20029;-81
2022/01/04 04:53:32;;;;;;;47.58;34.85;;;9.50;89.40;;;;;;5065498;28;20071;-80
2022/01/04 04:55:57;;;;;;;52.05;36.05;;;9.50;89.50;;;;;;5055954;28;20036;-81
2022/01/04 04:58:23;;;;;;;47.13;35.35;;;9.60;89.50;;;;;;5050631;28;20018;-81
2022/01/04 05:00:50;;;;;;;47.15;34.72;;;9.60;89.50;;;;;;5050861;28;20022;-81
2022/01/04 05:03:16;;;;;;;49.10;36.17;;;9.60;89.40;;;;;;5050065;28;20076;-80
2022/01/04 05:05:41;;;;;;;48.63;36.65;;;9.60;89.40;;;;;;5053163;28;20053;-80
2022/01/04 05:08:07;;;;;;;48.58;37.05;;;9.60;89.40;;;;;;5057950;28;20021;-80
2022/01/04 05:10:33;;;;;;;50.30;37.80;;;9.60;89.30;;;;;;5069661;28;20065;-80
2022/01/04 05:12:58;;;;;;;50.75;36.25;;;9.70;89.20;;;;;;5070075;28;20048;-81
2022/01/04 05:15:24;;;;;;;49.63;36.55;;;9.70;88.90;;;;;;5069873;28;20439;-81
2022/01/04 05:17:50;;;;;;;48.30;36.63;;;9.70;88.80;;;;;;5070265;28;20422;-81
2022/01/04 05:20:16;;;;;;;53.58;38.03;;;9.70;88.80;;;;;;5060296;28;20029;-81
2022/01/04 05:22:41;;;;;;;49.83;37.28;;;9.70;88.70;;;;;;5057836;28;20025;-81
2022/01/04 05:25:08;;;;;;;49.90;37.20;;;9.70;88.60;;;;;;5069859;28;20039;-81
2022/01/04 05:27:34;;;;;;;47.97;36.08;;;9.70;88.60;;;;;;5069606;28;20021;-80
2022/01/04 05:30:00;;;;;;;53.00;37.75;;;9.70;88.50;;;;;;5069710;28;20028;-81
2022/01/04 05:32:26;;;;;;;52.13;39.25;;;9.60;88.60;;;;;;5072134;28;20017;-81
2022/01/04 05:34:51;;;;;;;49.58;37.45;;;9.60;88.70;;;;;;5089379;28;20028;-81
2022/01/04 05:37:17;;;;;;;51.08;37.15;;;9.60;88.70;;;;;;5089029;28;20093;-81
2022/01/04 05:39:46;;;;;;;49.03;37.42;;;9.60;88.80;;;;;;5066322;28;20035;-81
2022/01/04 05:42:12;;;;;;;46.90;35.20;;;9.60;89.00;;;;;;5060415;28;20083;-80
2022/01/04 05:44:38;;;;;;;52.65;37.55;;;9.60;89.00;;;;;;5074983;28;20739;-81
2022/01/04 05:47:05;;;;;;;51.90;37.80;;;9.60;89.10;;;;;;5065945;28;20021;-80
2022/01/04 05:49:31;;;;;;;53.15;38.22;;;9.60;89.20;;;;;;5068451;28;20072;-80
2022/01/04 05:51:56;;;;;;;49.40;36.63;;;9.60;89.30;;;;;;5061836;28;20044;-80
2022/01/04 05:54:22;;;;;;;48.38;35.47;;;9.60;89.40;;;;;;5067160;28;20504;-80
2022/01/04 05:56:48;;;;;;;50.50;37.22;;;9.60;89.40;;;;;;5057547;28;20057;-80
2022/01/04 05:59:14;;;;;;;50.72;36.13;;;9.50;89.40;;;;;;5063379;28;20432;-80
2022/01/04 06:01:39;;;;;;;49.65;36.85;;;9.50;89.50;;;;;;5053387;28;20035;-80
2022/01/04 06:04:05;;;;;;;48.38;36.58;;;9.50;89.60;;;;;;5039976;28;20037;-77
2022/01/04 06:06:31;;;;;;;49.30;36.95;;;9.50;89.60;;;;;;5046720;28;20032;-78
2022/01/04 06:08:57;;;;;;;46.05;33.55;;;9.50;89.70;;;;;;5043371;28;20078;-78
2022/01/04 06:11:42;;;;;;;46.67;34.67;;;9.50;89.70;;;;;;5051440;28;20422;-79
2022/01/04 06:16:52;;;;;;;51.85;37.30;;;9.50;90.00;;;;;;5054569;28;20454;-78
2022/01/04 06:19:18;;;;;;;49.70;36.47;;;9.50;90.00;;;;;;5048504;28;20033;-78
2022/01/04 06:21:43;;;;;;;48.58;36.53;;;9.50;90.00;;;;;;5053088;28;20028;-78
2022/01/04 06:24:10;;;;;;;51.22;36.05;;;9.60;89.80;;;;;;5053646;28;20040;-77
2022/01/04 06:26:35;;;;;;;52.10;36.67;;;9.60;89.80;;;;;;5054636;28;20048;-77
2022/01/04 06:29:01;;;;;;;48.17;35.45;;;9.60;89.70;;;;;;5053765;28;20048;-78
2022/01/04 06:31:49;;;;;;;47.00;34.92;;;9.60;89.50;;;;;;5048338;28;20795;-78
2022/01/04 06:34:15;;;;;;;51.67;36.50;;;9.60;89.40;;;;;;5042074;28;20044;-78
2022/01/04 06:36:40;;;;;;;49.97;37.13;;;9.60;89.40;;;;;;5042096;28;20520;-79
2022/01/04 06:39:06;;;;;;;48.53;36.13;;;9.60;89.50;;;;;;5050388;28;20066;-79
2022/01/04 06:41:32;;;;;;;45.33;34.85;;;9.60;89.40;;;;;;5040039;28;20035;-76
2022/01/04 06:43:58;;;;;;;48.58;36.53;;;9.60;89.50;;;;;;5054487;28;20032;-76
2022/01/04 06:46:25;;;;;;;49.30;36.13;;;9.70;89.50;;;;;;5049058;28;20032;-76
2022/01/04 06:48:51;;;;;;;51.30;37.13;;;9.70;89.20;;;;;;5052577;28;20024;-76
2022/01/04 06:51:17;;;;;;;53.75;38.10;;;9.70;89.10;;;;;;5052599;28;20749;-76
2022/01/04 06:53:42;;;;;;;53.28;38.97;;;9.70;89.20;;;;;;5049809;28;20048;-76
2022/01/04 06:56:08;;;;;;;51.42;37.83;;;9.70;89.20;;;;;;5058867;28;20037;-76
2022/01/04 06:58:34;;;;;;;48.97;36.67;;;9.70;89.20;;;;;;5054933;28;20104;-77
2022/01/04 07:01:00;;;;;;;51.25;36.88;;;9.70;89.20;;;;;;5053214;28;20029;-83
2022/01/04 07:03:25;;;;;;;46.03;35.33;;;9.80;89.30;;;;;;5052072;28;20052;-79
2022/01/04 07:05:51;;;;;;;50.83;36.63;;;9.80;90.00;;;;;;5048740;28;20183;-77
2022/01/04 07:08:17;;;;;;;50.95;35.70;;;9.90;89.50;;;;;;5052519;28;20036;-77
2022/01/04 07:10:42;;;;;;;48.25;36.00;;;9.90;89.10;;;;;;5064252;28;20078;-78
2022/01/04 07:13:09;;;;;;;47.15;34.22;;;9.80;88.90;;;;;;5062408;28;20051;-78
2022/01/04 07:15:36;;;;;;;45.80;33.47;;;9.60;89.10;;;;;;5036586;28;20038;-79
2022/01/04 07:18:01;;;;;;;48.47;35.35;;;9.60;89.50;;;;;;5048495;28;20025;-77
2022/01/04 07:20:27;;;;;;;48.80;34.95;;;9.60;89.70;;;;;;5057797;28;20043;-84
2022/01/04 07:23:11;;;;;;;49.58;35.72;;;9.60;89.90;;;;;;5059202;28;20029;-83
2022/01/04 07:25:39;;;;;;;49.67;35.20;;;9.60;90.00;;;;;;5040265;28;20037;-84
2022/01/04 07:28:04;;;;;;;47.80;36.25;;;9.60;90.00;;;;;;5052916;28;20496;-77
2022/01/04 07:30:30;;;;;;;47.33;36.33;;;9.70;89.70;;;;;;5053679;28;20036;-77
2022/01/04 07:32:56;;;;;;;48.75;36.15;;;9.60;89.60;;;;;;5047429;28;20025;-77
2022/01/04 07:35:22;;;;;;;52.42;35.83;;;9.60;89.80;;;;;;5052825;28;20040;-78
2022/01/04 07:37:48;;;;;;;42.10;31.38;;;9.50;89.50;;;;;;5052710;28;20526;-78
2022/01/04 07:40:14;;;;;;;49.28;34.67;;;9.50;90.10;;;;;;5045827;28;20060;-78
2022/01/04 07:42:40;;;;;;;50.88;35.85;;;9.50;90.00;;;;;;5045709;28;20499;-78
2022/01/04 07:45:06;;;;;;;49.15;34.60;;;9.60;89.90;;;;;;5045415;28;20041;-79
2022/01/04 07:47:32;;;;;;;46.03;35.53;;;9.60;89.70;;;;;;5052084;28;20029;-78
2022/01/04 07:49:57;;;;;;;43.90;32.65;;;9.60;89.40;;;;;;5051855;28;20120;-77
2022/01/04 07:52:23;;;;;;;45.17;33.35;;;9.60;89.40;;;;;;5036239;28;20025;-77
2022/01/04 07:54:49;;;;;;;45.10;34.20;;;9.60;90.00;;;;;;5052170;28;20029;-77
2022/01/04 07:57:15;;;;;;;42.88;32.47;;;9.60;89.70;;;;;;5047694;28;20074;-77
2022/01/04 07:59:40;;;;;;;46.55;33.40;;;9.50;89.50;;;;;;5045447;28;20033;-77
2022/01/04 08:02:07;;;;;;;44.72;34.63;;;9.60;89.60;;;;;;5050318;28;20032;-78
2022/01/04 08:04:33;;;;;;;44.45;34.40;;;9.60;89.80;;;;;;5046766;28;20560;-79
2022/01/04 08:06:59;;;;;;;43.78;33.40;;;9.60;89.80;;;;;;5055818;28;20393;-77
2022/01/04 08:09:25;;;;;;;43.55;32.22;;;9.60;89.60;;;;;;5056270;28;20040;-78
2022/01/04 08:11:51;;;;;;;41.65;31.63;;;9.60;89.30;;;;;;5045751;28;20024;-77
2022/01/04 08:14:17;;;;;;;37.10;27.58;;;9.60;89.40;;;;;;5041473;28;20033;-78
2022/01/04 08:16:43;;;;;;;40.90;32.30;;;9.60;90.10;;;;;;5044611;28;20031;-77
2022/01/04 08:19:09;;;;;;;42.40;31.48;;;9.70;90.10;;;;;;5053004;28;20025;-78
2022/01/04 08:21:35;;;;;;;42.70;32.90;;;9.70;90.00;;;;;;5066396;28;20515;-77
2022/01/04 08:24:01;;;;;;;41.70;32.70;;;9.70;90.00;;;;;;5053515;28;20029;-77
2022/01/04 08:26:28;;;;;;;46.17;34.50;;;9.80;89.90;;;;;;5053235;28;20025;-77
2022/01/04 08:28:54;;;;;;;53.75;38.55;;;9.80;89.70;;;;;;5054597;28;20029;-78
2022/01/04 08:31:20;;;;;;;42.28;31.75;;;9.70;88.80;;;;;;5048414;28;20029;-78
2022/01/04 08:33:46;;;;;;;40.65;31.13;;;9.60;89.20;;;;;;5057276;28;20481;-78
2022/01/04 08:36:12;;;;;;;47.10;34.67;;;9.50;89.30;;;;;;5055155;28;20076;-78
2022/01/04 08:38:39;;;;;;;39.20;30.52;;;9.50;89.60;;;;;;5054971;28;20456;-78
2022/01/04 08:41:06;;;;;;;42.83;32.63;;;9.50;89.70;;;;;;5052638;28;20492;-78
2022/01/04 08:43:31;;;;;;;41.30;31.25;;;9.50;89.90;;;;;;5051161;28;20037;-78
2022/01/04 08:45:57;;;;;;;45.67;34.25;;;9.40;90.00;;;;;;5056864;28;20246;-78
2022/01/04 08:48:23;;;;;;;45.20;31.98;;;9.40;90.10;;;;;;5053036;28;20424;-78
2022/01/04 08:50:49;;;;;;;41.97;31.75;;;9.30;90.10;;;;;;5054028;28;20104;-78
2022/01/04 08:53:15;;;;;;;45.53;33.78;;;9.40;90.20;;;;;;5052010;28;20104;-78
2022/01/04 08:55:41;;;;;;;39.13;29.58;;;9.40;90.20;;;;;;5054831;28;20481;-79
2022/01/04 08:58:07;;;;;;;42.83;33.22;;;9.30;90.30;;;;;;5072399;28;20115;-79
2022/01/04 09:00:33;;;;;;;50.95;37.90;;;9.40;90.30;;;;;;5065832;28;20389;-78
2022/01/04 09:03:00;;;;;;;44.83;32.60;;;9.40;90.40;;;;;;5050694;28;20120;-79
2022/01/04 09:05:27;;;;;;;43.47;31.92;;;9.30;90.40;;;;;;5059041;28;20028;-78
2022/01/04 09:07:53;;;;;;;38.65;29.73;;;9.30;90.40;;;;;;5057637;28;20033;-78
2022/01/04 09:10:18;;;;;;;38.95;30.38;;;9.30;90.30;;;;;;5049104;28;20037;-78
2022/01/04 09:12:58;;;;;;;42.53;32.17;;;9.30;90.40;;;;;;5042534;28;20029;-79
2022/01/04 09:15:30;;;;;;;41.35;31.58;;;9.30;90.50;;;;;;5029878;28;20108;-78
2022/01/04 09:20:45;;;;;;;38.08;28.30;;;9.30;90.40;;;;;;5049195;28;20036;-77
2022/01/04 09:23:15;;;;;;;36.40;28.65;;;9.30;90.40;;;;;;5048973;28;20123;-77
2022/01/04 09:25:41;;;;;;;38.42;29.75;;;9.40;90.50;;;;;;5056933;28;20059;-77
2022/01/04 09:28:07;;;;;;;48.42;35.05;;;9.40;90.50;;;;;;5068099;28;20028;-77
2022/01/04 09:30:33;;;;;;;46.75;35.13;;;9.50;90.50;;;;;;5055370;28;20029;-77
2022/01/04 09:33:00;;;;;;;41.45;30.20;;;9.40;90.40;;;;;;5053071;28;20041;-78
2022/01/04 09:35:26;;;;;;;37.15;28.38;;;9.40;90.50;;;;;;5052702;28;20028;-78
2022/01/04 09:37:51;;;;;;;44.75;32.08;;;9.40;90.60;;;;;;5051018;28;20033;-78
2022/01/04 09:40:17;;;;;;;41.25;31.17;;;9.40;90.60;;;;;;5057387;28;20028;-78
2022/01/04 09:42:43;;;;;;;40.63;31.05;;;9.40;90.60;;;;;;5073261;28;20028;-77
2022/01/04 09:45:09;;;;;;;39.97;30.77;;;9.40;90.70;;;;;;5057282;28;20491;-78
2022/01/04 09:47:35;;;;;;;40.83;30.98;;;9.50;90.70;;;;;;5055627;28;20029;-77
2022/01/04 09:50:08;;;;;;;39.63;30.40;;;9.50;90.60;;;;;;5056993;28;20024;-82
2022/01/04 09:52:38;;;;;;;43.97;33.08;;;9.50;90.60;;;;;;5055783;28;20029;-81
2022/01/04 09:55:04;;;;;;;41.78;32.17;;;9.60;90.60;;;;;;5059547;28;20492;-81
2022/01/04 09:57:30;;;;;;;41.55;32.20;;;9.60;90.60;;;;;;5062676;28;20041;-81
2022/01/04 09:59:56;;;;;;;39.08;30.75;;;9.70;90.60;;;;;;5055767;28;20025;-81
2022/01/04 10:02:21;;;;;;;43.35;34.03;;;9.70;90.40;;;;;;5054981;28;20118;-81
2022/01/04 10:04:47;;;;;;;39.90;31.70;;;9.80;90.40;;;;;;5065394;28;20028;-83
2022/01/04 10:07:13;;;;;;;45.78;33.28;;;9.80;90.30;;;;;;5055418;28;20424;-84
2022/01/04 10:09:48;;;;;;;40.42;29.17;;;9.80;90.30;;;;;;5048930;28;20037;-83
2022/01/04 10:12:23;;;;;;;43.75;33.25;;;9.70;90.20;;;;;;5037897;28;20062;-83
2022/01/04 10:14:52;;;;;;;43.15;33.83;;;9.70;90.20;;;;;;5037551;28;20030;-83
2022/01/04 10:17:27;;;;;;;44.53;32.05;;;9.50;90.40;;;;;;5037689;28;20385;-82
2022/01/04 10:19:54;;;;;;;42.75;32.33;;;9.50;90.50;;;;;;5038660;28;20057;-83
2022/01/04 10:22:32;;;;;;;41.85;33.45;;;9.50;90.50;;;;;;5067565;28;20037;-78
2022/01/04 10:25:00;;;;;;;42.53;31.90;;;9.50;90.60;;;;;;5057439;28;20031;-77
2022/01/04 10:27:34;;;;;;;40.90;33.78;;;9.60;90.50;;;;;;5075542;28;20036;-78
2022/01/04 10:30:26;;;;;;;44.72;34.05;;;9.60;90.50;;;;;;5072121;28;20021;-78
2022/01/04 10:33:10;;;;;;;44.38;33.58;;;9.70;90.50;;;;;;5056471;28;20029;-77
2022/01/04 10:35:44;;;;;;;42.08;33.65;;;9.80;90.40;;;;;;5052551;28;20025;-77
2022/01/04 10:38:29;;;;;;;41.92;32.92;;;9.80;90.30;;;;;;5055027;28;20032;-77
2022/01/04 10:41:16;;;;;;;44.53;34.20;;;9.90;90.20;;;;;;5061660;28;20027;-82
2022/01/04 10:44:10;;;;;;;44.95;34.60;;;9.90;90.10;;;;;;5050533;28;20036;-83
2022/01/04 10:46:43;;;;;;;43.63;32.58;;;10.00;90.10;;;;;;5036151;28;20057;-82
2022/01/04 10:49:20;;;;;;;41.08;32.45;;;10.00;90.10;;;;;;5062720;28;20487;-82
2022/01/04 10:52:07;;;;;;;42.15;33.80;;;10.00;90.00;;;;;;5072414;28;20051;-83
2022/01/04 10:54:33;;;;;;;41.28;32.63;;;10.10;90.10;;;;;;5050475;28;20747;-82
2022/01/04 10:57:07;;;;;;;42.50;32.75;;;10.10;90.00;;;;;;5055799;28;20028;-82
2022/01/04 10:59:34;;;;;;;38.85;30.88;;;10.20;89.90;;;;;;5056924;28;20040;-82
2022/01/04 11:01:59;;;;;;;42.35;31.58;;;10.20;89.70;;;;;;5060104;28;20037;-82
2022/01/04 11:04:26;;;;;;;38.80;31.02;;;10.20;89.60;;;;;;5052188;28;20670;-82
2022/01/04 11:06:58;;;;;;;37.17;28.52;;;10.20;89.40;;;;;;5054719;28;20047;-82
2022/01/04 11:09:25;;;;;;;36.97;28.52;;;10.20;89.20;;;;;;5056949;28;20029;-82
2022/01/04 11:11:51;;;;;;;34.45;27.98;;;10.30;89.20;;;;;;5053251;28;20098;-82
2022/01/04 11:14:16;;;;;;;37.55;29.25;;;10.30;89.10;;;;;;5056134;28;20020;-82
2022/01/04 11:16:42;;;;;;;36.17;29.02;;;10.30;89.00;;;;;;5056960;28;20116;-82
2022/01/04 11:19:08;;;;;;;37.60;29.55;;;10.30;88.90;;;;;;5066330;28;20037;-83
2022/01/04 11:21:37;;;;;;;38.03;31.10;;;10.30;88.70;;;;;;5060277;28;20075;-82
2022/01/04 11:24:12;;;;;;;37.70;29.80;;;10.30;88.90;;;;;;5057599;28;20489;-81
2022/01/04 11:26:45;;;;;;;38.40;29.92;;;10.30;89.00;;;;;;5052371;28;20048;-83
2022/01/04 11:29:13;;;;;;;39.22;28.38;;;10.30;89.00;;;;;;5070653;28;20032;-82
2022/01/04 11:31:57;;;;;;;33.05;26.85;;;10.30;89.00;;;;;;5073518;28;20059;-82
2022/01/04 11:34:49;;;;;;;28.52;24.30;;;10.40;88.80;;;;;;5072471;28;20043;-81
2022/01/04 11:37:20;;;;;;;32.08;24.73;;;10.40;88.60;;;;;;5049791;28;20049;-82
2022/01/04 11:39:45;;;;;;;30.85;25.27;;;10.40;88.30;;;;;;5048737;28;20063;-81
2022/01/04 11:42:35;;;;;;;35.35;27.77;;;10.40;88.10;;;;;;5052436;28;20029;-81
2022/01/04 11:45:03;;;;;;;32.13;26.00;;;10.40;88.20;;;;;;5050481;28;20051;-81
2022/01/04 11:47:34;;;;;;;34.63;26.83;;;10.50;88.20;;;;;;5051329;28;20039;-82
2022/01/04 11:50:16;;;;;;;32.60;25.45;;;10.50;88.10;;;;;;5065588;28;20075;-82
2022/01/04 11:52:48;;;;;;;30.67;24.40;;;10.50;87.90;;;;;;5053903;28;20063;-81
2022/01/04 11:55:21;;;;;;;31.08;25.10;;;10.60;87.90;;;;;;5051601;28;20441;-81
2022/01/04 11:57:48;;;;;;;29.17;22.92;;;10.50;87.60;;;;;;5053647;28;20033;-81
2022/01/04 12:00:29;;;;;;;31.25;23.58;;;10.60;87.20;;;;;;5042083;28;20141;-81
2022/01/04 12:03:03;;;;;;;33.40;25.65;;;10.50;87.30;;;;;;5054166;28;20029;-81
2022/01/04 12:05:29;;;;;;;35.85;26.90;;;10.50;87.30;;;;;;5044179;28;20029;-81
2022/01/04 12:07:57;;;;;;;34.03;27.08;;;10.50;87.40;;;;;;5034189;28;20087;-81
2022/01/04 12:10:23;;;;;;;30.85;25.75;;;10.50;87.50;;;;;;5057935;28;20079;-80
2022/01/04 12:13:05;;;;;;;32.72;26.08;;;10.60;87.70;;;;;;5060786;28;20029;-82
2022/01/04 12:15:34;;;;;;;34.50;27.13;;;10.60;87.70;;;;;;5044067;28;20085;-83
2022/01/04 12:18:09;;;;;;;32.80;26.23;;;10.60;87.70;;;;;;5048852;28;20362;-81
2022/01/04 12:20:49;;;;;;;34.03;27.80;;;10.60;87.60;;;;;;5052443;28;20022;-82
2022/01/04 12:23:26;;;;;;;34.08;27.27;;;10.60;87.50;;;;;;5049840;28;20033;-81
2022/01/04 12:26:12;;;;;;;36.28;28.48;;;10.70;87.50;;;;;;5046925;28;20053;-81
2022/01/04 12:28:42;;;;;;;35.88;28.95;;;10.50;87.60;;;;;;5049942;28;20358;-83
2022/01/04 12:31:13;;;;;;;34.97;27.98;;;10.40;87.90;;;;;;5061803;28;20032;-82
2022/01/04 12:33:44;;;;;;;39.15;32.83;;;10.40;87.90;;;;;;5051247;28;20048;-83
2022/01/04 12:36:22;;;;;;;33.30;27.67;;;10.30;88.00;;;;;;5054872;28;20112;-83
2022/01/04 12:38:48;;;;;;;35.63;28.33;;;10.20;88.50;;;;;;5060029;28;20032;-83
2022/01/04 12:41:17;;;;;;;39.38;28.98;;;10.20;88.60;;;;;;5050288;28;20033;-83
2022/01/04 12:43:46;;;;;;;34.65;27.77;;;10.20;88.90;;;;;;5045024;28;20035;-83
2022/01/04 12:46:13;;;;;;;37.38;29.15;;;10.30;89.00;;;;;;5060093;28;20099;-84